createdAt,value
2023-01-17T00:02:12.617Z,8.80
2023-01-17T00:05:00.804Z,8.77
2023-01-17T00:07:48.033Z,8.74
2023-01-17T00:10:21.987Z,8.71
2023-01-17T00:12:52.722Z,8.67
2023-01-17T00:15:21.224Z,8.54
2023-01-17T00:17:49.397Z,8.65
2023-01-17T00:20:39.353Z,8.62
2023-01-17T00:23:33.968Z,8.52
2023-01-17T00:26:04.180Z,8.49
2023-01-17T00:28:38.231Z,8.47
2023-01-17T00:31:07.096Z,8.37
2023-01-17T00:33:34.939Z,8.29
2023-01-17T00:36:03.156Z,8.19
2023-01-17T00:38:34.332Z,8.21
2023-01-17T00:41:04.600Z,8.16
2023-01-17T00:43:51.899Z,8.09
2023-01-17T00:46:38.423Z,8.10
2023-01-17T00:49:43.379Z,8.06
2023-01-17T00:52:29.087Z,8.09
2023-01-17T00:55:15.417Z,8.03
2023-01-17T00:58:01.029Z,8.02
2023-01-17T01:00:57.136Z,8.01
2023-01-17T01:03:43.194Z,8.05
2023-01-17T01:06:31.427Z,8.08
2023-01-17T01:09:17.634Z,8.06
2023-01-17T01:12:03.861Z,8.09
2023-01-17T01:14:50.052Z,8.09
2023-01-17T01:17:36.092Z,8.02
2023-01-17T01:20:23.610Z,8.03
2023-01-17T01:23:09.979Z,8.07
2023-01-17T01:25:55.699Z,8.13
2023-01-17T01:28:41.906Z,8.19
2023-01-17T01:31:27.854Z,8.23
2023-01-17T01:33:56.919Z,8.20
2023-01-17T01:36:24.122Z,8.17
2023-01-17T01:38:51.810Z,8.17
2023-01-17T01:41:19.070Z,8.06
2023-01-17T01:43:53.975Z,8.15
2023-01-17T01:46:30.549Z,8.15
2023-01-17T01:49:03.420Z,8.20
2023-01-17T01:51:43.077Z,8.27
2023-01-17T01:54:21.316Z,8.18
2023-01-17T01:56:52.829Z,8.19
2023-01-17T01:59:23.187Z,8.18
2023-01-17T02:01:53.241Z,8.24
2023-01-17T02:04:22.539Z,8.26
2023-01-17T02:06:56.386Z,8.18
2023-01-17T02:09:24.692Z,8.22
2023-01-17T02:11:52.029Z,8.16
2023-01-17T02:14:22.871Z,8.12
2023-01-17T02:17:25.459Z,8.15
2023-01-17T02:20:14.910Z,8.20
2023-01-17T02:23:20.491Z,8.14
2023-01-17T02:26:06.217Z,8.07
2023-01-17T02:28:36.552Z,8.05
2023-01-17T02:31:17.954Z,8.10
2023-01-17T02:34:15.788Z,8.03
2023-01-17T02:36:56.011Z,8.03
2023-01-17T02:39:30.201Z,8.06
2023-01-17T02:42:03.995Z,8.08
2023-01-17T02:44:41.015Z,8.02
2023-01-17T02:47:37.933Z,8.06
2023-01-17T02:50:16.051Z,8.06
2023-01-17T02:52:46.656Z,8.14
2023-01-17T02:55:35.476Z,8.18
2023-01-17T02:58:32.943Z,8.18
2023-01-17T03:01:52.106Z,8.23
2023-01-17T03:04:33.068Z,8.29
2023-01-17T03:07:10.430Z,8.35
2023-01-17T03:09:40.868Z,8.33
2023-01-17T03:12:09.833Z,8.36
2023-01-17T03:14:39.484Z,8.43
2023-01-17T03:17:07.583Z,8.42
2023-01-17T03:19:35.246Z,8.46
2023-01-17T03:22:02.428Z,8.50
2023-01-17T03:24:30.397Z,8.51
2023-01-17T03:26:57.686Z,8.51
2023-01-17T03:29:25.637Z,8.55
2023-01-17T03:31:52.913Z,8.53
2023-01-17T03:34:20.428Z,8.53
2023-01-17T03:36:47.638Z,8.57
2023-01-17T03:39:15.268Z,8.36
2023-01-17T03:41:42.954Z,8.62
2023-01-17T03:44:10.500Z,8.73
2023-01-17T03:46:37.779Z,8.58
2023-01-17T03:49:05.353Z,8.69
2023-01-17T03:51:32.582Z,8.50
2023-01-17T03:54:00.569Z,8.60
2023-01-17T03:56:27.843Z,8.59
2023-01-17T03:58:58.652Z,8.48
2023-01-17T04:01:26.253Z,8.47
2023-01-17T04:03:54.597Z,8.48
2023-01-17T04:06:21.817Z,8.57
2023-01-17T04:08:49.360Z,8.66
2023-01-17T04:11:17.108Z,8.65
2023-01-17T04:13:44.988Z,8.83
2023-01-17T04:16:19.698Z,8.90
2023-01-17T04:18:47.356Z,8.88
2023-01-17T04:21:14.713Z,8.78
2023-01-17T04:23:42.670Z,8.66
2023-01-17T04:26:12.372Z,8.55
2023-01-17T04:28:39.994Z,8.61
2023-01-17T04:31:07.548Z,8.57
2023-01-17T04:33:35.225Z,8.49
2023-01-17T04:36:02.722Z,8.50
2023-01-17T04:38:30.279Z,8.54
2023-01-17T04:40:57.832Z,8.42
2023-01-17T04:43:25.587Z,8.40
2023-01-17T04:45:56.853Z,8.29
2023-01-17T04:48:24.905Z,8.26
2023-01-17T04:50:52.164Z,8.19
2023-01-17T04:53:19.979Z,8.20
2023-01-17T04:55:48.484Z,8.27
2023-01-17T04:58:16.087Z,8.31
2023-01-17T05:00:44.112Z,8.15
2023-01-17T05:03:11.978Z,8.15
2023-01-17T05:05:39.164Z,8.19
2023-01-17T05:08:07.761Z,8.16
2023-01-17T05:10:35.227Z,8.20
2023-01-17T05:13:03.326Z,8.17
2023-01-17T05:15:30.581Z,8.23
2023-01-17T05:17:58.152Z,8.19
2023-01-17T05:20:26.802Z,8.21
2023-01-17T05:22:57.691Z,8.15
2023-01-17T05:25:28.714Z,8.21
2023-01-17T05:28:02.528Z,8.19
2023-01-17T05:30:31.752Z,8.19
2023-01-17T05:33:01.527Z,8.28
2023-01-17T05:35:32.880Z,8.31
2023-01-17T05:38:01.593Z,8.32
2023-01-17T05:40:32.217Z,8.37
2023-01-17T05:43:01.307Z,8.33
2023-01-17T05:45:29.904Z,8.25
2023-01-17T05:47:58.450Z,8.22
2023-01-17T05:50:32.305Z,8.29
2023-01-17T05:53:03.703Z,8.21
2023-01-17T05:55:31.505Z,8.16
2023-01-17T05:57:59.936Z,8.23
2023-01-17T06:00:27.920Z,8.27
2023-01-17T06:02:58.197Z,8.31
2023-01-17T06:05:27.374Z,8.28
2023-01-17T06:07:56.725Z,8.21
2023-01-17T06:10:25.511Z,8.16
2023-01-17T06:13:08.724Z,8.07
2023-01-17T06:15:38.424Z,8.12
2023-01-17T06:18:11.634Z,8.08
2023-01-17T06:20:40.397Z,8.15
2023-01-17T06:23:12.112Z,8.15
2023-01-17T06:25:41.501Z,8.24
2023-01-17T06:28:09.563Z,8.26
2023-01-17T06:30:38.341Z,8.30
2023-01-17T06:33:06.170Z,8.33
2023-01-17T06:35:33.581Z,8.33
2023-01-17T06:38:01.234Z,8.28
2023-01-17T06:40:30.907Z,8.23
2023-01-17T06:43:02.721Z,8.20
2023-01-17T06:45:32.696Z,8.10
2023-01-17T06:48:01.792Z,8.14
2023-01-17T06:50:29.003Z,8.18
2023-01-17T06:52:58.670Z,8.15
2023-01-17T06:55:31.360Z,8.15
2023-01-17T06:58:03.259Z,8.14
2023-01-17T07:00:32.207Z,8.15
2023-01-17T07:03:00.193Z,8.20
2023-01-17T07:05:28.629Z,8.24
2023-01-17T07:07:58.080Z,8.14
2023-01-17T07:10:25.322Z,8.21
2023-01-17T07:12:58.753Z,8.22
2023-01-17T07:15:25.946Z,8.04
2023-01-17T07:17:53.496Z,8.06
2023-01-17T07:20:21.172Z,8.05
2023-01-17T07:22:49.110Z,8.07
2023-01-17T07:25:16.339Z,8.05
2023-01-17T07:27:43.965Z,8.09
2023-01-17T07:30:13.180Z,8.19
2023-01-17T07:32:41.091Z,8.26
2023-01-17T07:35:08.648Z,8.15
2023-01-17T07:37:36.131Z,8.42
2023-01-17T07:40:24.371Z,8.41
2023-01-17T07:42:52.088Z,8.41
2023-01-17T07:45:20.556Z,8.28
2023-01-17T07:47:50.245Z,8.33
2023-01-17T07:50:19.167Z,8.46
2023-01-17T07:52:52.672Z,8.38
2023-01-17T07:55:19.956Z,8.11
2023-01-17T07:57:50.876Z,8.46
2023-01-17T08:00:23.378Z,8.42
2023-01-17T08:02:55.239Z,8.43
2023-01-17T08:05:23.066Z,8.54
2023-01-17T08:07:50.591Z,8.56
2023-01-17T08:10:18.280Z,8.54
2023-01-17T08:12:47.520Z,8.63
2023-01-17T08:15:16.890Z,8.68
2023-01-17T08:17:54.680Z,8.79
2023-01-17T08:20:22.187Z,8.81
2023-01-17T08:22:53.620Z,8.84
2023-01-17T08:25:21.352Z,8.84
2023-01-17T08:27:48.902Z,8.96
2023-01-17T08:30:16.511Z,9.05
2023-01-17T08:32:44.168Z,9.00
2023-01-17T08:35:11.371Z,8.97
2023-01-17T08:37:39.283Z,9.12
2023-01-17T08:40:11.254Z,8.99
2023-01-17T08:43:01.209Z,9.04
2023-01-17T08:45:29.346Z,8.86
2023-01-17T08:47:59.235Z,8.97
2023-01-17T08:50:27.133Z,9.21
2023-01-17T08:53:01.080Z,9.85
2023-01-17T08:55:28.809Z,10.56
2023-01-17T08:57:57.584Z,10.82
2023-01-17T09:00:25.274Z,11.53
2023-01-17T09:02:53.979Z,11.37
2023-01-17T09:05:21.553Z,11.52
2023-01-17T09:07:49.139Z,12.43
2023-01-17T09:10:16.896Z,13.35
2023-01-17T09:12:44.572Z,13.19
2023-01-17T09:15:14.790Z,12.72
2023-01-17T09:17:42.326Z,11.70
2023-01-17T09:20:10.663Z,10.85
2023-01-17T09:22:39.273Z,10.26
2023-01-17T09:25:07.347Z,10.46
2023-01-17T09:27:34.900Z,10.14
2023-01-17T09:30:02.491Z,10.10
2023-01-17T09:32:30.140Z,10.06
2023-01-17T09:35:01.080Z,10.10
2023-01-17T09:37:28.866Z,9.92
2023-01-17T09:39:56.212Z,9.89
2023-01-17T09:42:34.601Z,9.82
2023-01-17T09:45:02.621Z,9.87
2023-01-17T09:47:30.379Z,10.05
2023-01-17T09:50:03.482Z,10.87
2023-01-17T09:52:32.670Z,12.07
2023-01-17T09:55:00.179Z,13.17
2023-01-17T09:57:58.794Z,13.50
2023-01-17T10:00:40.997Z,13.76
2023-01-17T10:03:30.453Z,13.23
2023-01-17T10:06:22.806Z,12.98
2023-01-17T10:09:24.457Z,13.89
2023-01-17T10:12:01.125Z,13.82
2023-01-17T10:14:50.100Z,13.04
2023-01-17T10:17:32.212Z,12.50
2023-01-17T10:20:24.609Z,11.91
2023-01-17T10:23:18.435Z,11.87
2023-01-17T10:25:52.545Z,12.68
2023-01-17T10:28:24.632Z,12.51
2023-01-17T10:30:58.243Z,12.50
2023-01-17T10:33:29.432Z,12.10
2023-01-17T10:36:11.187Z,12.89
2023-01-17T10:38:41.824Z,12.54
2023-01-17T10:41:18.550Z,12.13
2023-01-17T10:44:06.741Z,12.12
2023-01-17T10:46:51.993Z,12.55
2023-01-17T10:49:21.399Z,13.24
2023-01-17T10:52:12.571Z,13.87
2023-01-17T10:54:50.107Z,13.81
2023-01-17T10:57:26.087Z,14.54
2023-01-17T10:59:58.073Z,15.04
2023-01-17T11:02:36.974Z,15.37
2023-01-17T11:05:20.643Z,14.79
2023-01-17T11:07:58.452Z,14.78
2023-01-17T11:10:39.954Z,14.63
2023-01-17T11:13:23.395Z,13.72
2023-01-17T11:15:54.093Z,13.05
2023-01-17T11:18:22.494Z,13.56
2023-01-17T11:20:50.182Z,13.64
2023-01-17T11:23:30.999Z,12.93
2023-01-17T11:26:04.925Z,12.23
2023-01-17T11:28:35.244Z,11.88
2023-01-17T11:31:08.072Z,11.73
2023-01-17T11:33:45.563Z,11.86
2023-01-17T11:36:33.327Z,11.63
2023-01-17T11:39:27.640Z,10.91
2023-01-17T11:41:55.333Z,10.61
2023-01-17T11:44:30.983Z,10.59
2023-01-17T11:47:24.867Z,10.33
2023-01-17T11:49:52.532Z,10.37
2023-01-17T11:52:26.377Z,10.42
2023-01-17T11:54:55.499Z,10.37
2023-01-17T11:57:40.931Z,10.13
2023-01-17T12:00:25.053Z,10.03
2023-01-17T12:03:01.745Z,10.14
2023-01-17T12:05:53.740Z,10.15
2023-01-17T12:08:29.264Z,10.08
2023-01-17T12:11:05.986Z,9.93
2023-01-17T12:14:00.760Z,9.97
2023-01-17T12:16:43.580Z,10.07
2023-01-17T12:19:39.060Z,10.11
2023-01-17T12:22:23.450Z,10.00
2023-01-17T12:25:08.379Z,10.01
2023-01-17T12:27:51.087Z,10.02
2023-01-17T12:30:18.310Z,9.99
2023-01-17T12:33:28.053Z,9.96
2023-01-17T12:36:05.838Z,10.10
2023-01-17T12:38:36.514Z,10.09
2023-01-17T12:41:14.277Z,10.06
2023-01-17T12:43:44.380Z,10.13
2023-01-17T12:46:31.262Z,10.19
2023-01-17T12:49:37.697Z,10.25
2023-01-17T12:52:33.924Z,10.21
2023-01-17T12:55:17.769Z,10.36
2023-01-17T12:57:53.162Z,10.45
2023-01-17T13:00:23.624Z,10.62
2023-01-17T13:03:08.270Z,10.67
2023-01-17T13:05:41.969Z,10.68
2023-01-17T13:08:09.264Z,10.68
2023-01-17T13:10:47.936Z,10.67
2023-01-17T13:13:25.696Z,10.68
2023-01-17T13:15:58.206Z,10.65
2023-01-17T13:18:29.921Z,10.79
2023-01-17T13:21:06.951Z,10.71
2023-01-17T13:23:47.950Z,10.81
2023-01-17T13:26:24.945Z,10.81
2023-01-17T13:29:29.262Z,10.71
2023-01-17T13:32:34.773Z,10.58
2023-01-17T13:35:42.077Z,10.58
2023-01-17T13:38:23.433Z,10.28
2023-01-17T13:40:54.989Z,10.11
2023-01-17T13:43:26.363Z,10.19
2023-01-17T13:45:56.683Z,9.96
2023-01-17T13:48:26.991Z,9.90
2023-01-17T13:51:11.070Z,9.91
2023-01-17T13:53:38.666Z,9.89
2023-01-17T13:56:29.003Z,9.87
2023-01-17T13:59:02.955Z,9.81
2023-01-17T14:01:34.921Z,9.93
2023-01-17T14:04:12.711Z,9.99
2023-01-17T14:06:47.081Z,9.94
2023-01-17T14:09:33.611Z,9.81
2023-01-17T14:12:15.185Z,9.76
2023-01-17T14:14:46.246Z,9.81
2023-01-17T14:17:16.682Z,9.81
2023-01-17T14:19:48.675Z,9.81
2023-01-17T14:22:18.763Z,9.86
2023-01-17T14:25:03.370Z,9.79
2023-01-17T14:27:34.830Z,9.80
2023-01-17T14:30:16.484Z,9.82
2023-01-17T14:33:01.755Z,9.78
2023-01-17T14:35:38.652Z,9.71
2023-01-17T14:38:27.150Z,9.76
2023-01-17T14:41:23.846Z,9.65
2023-01-17T14:43:54.018Z,9.72
2023-01-17T14:46:23.800Z,9.65
2023-01-17T14:48:59.016Z,9.69
2023-01-17T14:51:26.634Z,9.59
2023-01-17T14:53:56.649Z,9.69
2023-01-17T14:56:27.435Z,9.60
2023-01-17T14:59:17.249Z,9.63
2023-01-17T15:02:06.234Z,9.59
2023-01-17T15:04:39.788Z,9.63
2023-01-17T15:07:13.276Z,9.57
2023-01-17T15:09:43.751Z,9.53
2023-01-17T15:12:16.212Z,9.49
2023-01-17T15:14:46.373Z,9.54
2023-01-17T15:17:26.873Z,9.55
2023-01-17T15:20:17.028Z,9.64
2023-01-17T15:22:45.329Z,9.61
2023-01-17T15:25:14.281Z,9.68
2023-01-17T15:27:43.110Z,9.80
2023-01-17T15:30:15.367Z,9.73
2023-01-17T15:32:48.010Z,9.66
2023-01-17T15:35:19.314Z,9.63
2023-01-17T15:37:53.908Z,9.67
2023-01-17T15:40:24.281Z,9.85
2023-01-17T15:42:59.427Z,9.89
2023-01-17T15:45:30.799Z,9.91
2023-01-17T15:48:18.743Z,9.93
2023-01-17T15:50:46.451Z,9.90
2023-01-17T15:53:30.083Z,9.82
2023-01-17T15:55:57.792Z,9.82
2023-01-17T15:58:28.666Z,9.83
2023-01-17T16:00:57.308Z,9.86
2023-01-17T16:03:30.294Z,9.85
2023-01-17T16:06:00.736Z,9.94
2023-01-17T16:08:33.035Z,9.93
2023-01-17T16:11:06.487Z,10.04
2023-01-17T16:13:38.748Z,10.12
2023-01-17T16:16:15.647Z,10.07
2023-01-17T16:18:44.213Z,10.06
2023-01-17T16:21:19.884Z,10.19
2023-01-17T16:23:47.800Z,10.35
2023-01-17T16:26:15.449Z,10.39
2023-01-17T16:28:45.781Z,10.44
2023-01-17T16:31:13.281Z,10.38
2023-01-17T16:33:42.290Z,10.32
2023-01-17T16:36:15.264Z,10.26
2023-01-17T16:38:44.721Z,10.22
2023-01-17T16:41:12.073Z,10.18
2023-01-17T16:43:39.844Z,9.95
2023-01-17T16:46:07.550Z,9.80
2023-01-17T16:48:37.437Z,9.65
2023-01-17T16:51:08.326Z,9.60
2023-01-17T16:53:37.374Z,9.50
2023-01-17T16:56:14.652Z,9.42
2023-01-17T16:58:42.507Z,9.36
2023-01-17T17:01:12.051Z,9.32
2023-01-17T17:03:39.816Z,9.24
2023-01-17T17:06:07.445Z,9.04
2023-01-17T17:08:36.169Z,9.10
2023-01-17T17:11:14.650Z,9.18
2023-01-17T17:13:46.944Z,9.21
2023-01-17T17:16:24.113Z,9.10
2023-01-17T17:18:59.961Z,9.25
2023-01-17T17:21:28.772Z,9.22
2023-01-17T17:23:59.148Z,9.32
2023-01-17T17:26:31.096Z,9.35
2023-01-17T17:28:58.965Z,9.31
2023-01-17T17:31:27.119Z,9.47
2023-01-17T17:33:58.990Z,9.43
2023-01-17T17:36:26.304Z,9.31
2023-01-17T17:38:55.406Z,9.39
2023-01-17T17:41:31.725Z,9.50
2023-01-17T17:44:05.675Z,9.31
2023-01-17T17:46:35.221Z,9.48
2023-01-17T17:49:22.830Z,9.45
2023-01-17T17:51:50.194Z,9.49
2023-01-17T17:54:18.541Z,9.61
2023-01-17T17:56:49.230Z,9.77
2023-01-17T17:59:20.500Z,9.79
2023-01-17T18:02:10.792Z,9.87
2023-01-17T18:04:39.070Z,9.95
2023-01-17T18:07:09.070Z,9.96
2023-01-17T18:09:36.604Z,10.02
2023-01-17T18:12:04.139Z,10.05
2023-01-17T18:14:32.838Z,10.24
2023-01-17T18:17:00.275Z,10.30
2023-01-17T18:19:27.953Z,10.38
2023-01-17T18:21:55.408Z,10.46
2023-01-17T18:24:25.017Z,10.67
2023-01-17T18:26:58.056Z,10.82
2023-01-17T18:29:27.294Z,11.55
2023-01-17T18:31:55.576Z,12.05
2023-01-17T18:34:27.180Z,12.27
2023-01-17T18:36:54.621Z,12.43
2023-01-17T18:39:25.363Z,12.54
2023-01-17T18:41:53.264Z,12.67
2023-01-17T18:44:22.310Z,12.65
2023-01-17T18:46:59.713Z,12.72
2023-01-17T18:49:27.408Z,12.69
2023-01-17T18:51:54.712Z,12.74
2023-01-17T18:54:22.321Z,12.72
2023-01-17T18:56:51.253Z,12.72
2023-01-17T18:59:19.801Z,12.68
2023-01-17T19:01:47.692Z,12.66
2023-01-17T19:04:18.161Z,12.68
2023-01-17T19:06:48.647Z,12.62
2023-01-17T19:09:17.297Z,12.63
2023-01-17T19:11:46.238Z,12.75
2023-01-17T19:14:15.934Z,12.75
2023-01-17T19:16:43.964Z,12.77
2023-01-17T19:19:14.792Z,12.78
2023-01-17T19:21:43.057Z,12.83
2023-01-17T19:24:13.476Z,12.91
2023-01-17T19:26:42.202Z,12.90
2023-01-17T19:29:10.515Z,12.93
2023-01-17T19:31:44.465Z,12.91
2023-01-17T19:34:16.245Z,12.95
2023-01-17T19:36:43.741Z,12.94
2023-01-17T19:39:11.416Z,12.95
2023-01-17T19:41:45.650Z,12.83
2023-01-17T19:44:14.637Z,12.72
2023-01-17T19:46:42.613Z,12.85
2023-01-17T19:49:10.547Z,13.00
2023-01-17T19:51:39.749Z,13.05
2023-01-17T19:54:08.620Z,13.02
2023-01-17T19:56:36.319Z,13.02
2023-01-17T19:59:06.292Z,13.00
2023-01-17T20:01:35.606Z,13.07
2023-01-17T20:04:05.817Z,13.09
2023-01-17T20:06:37.016Z,13.19
2023-01-17T20:09:06.049Z,13.13
2023-01-17T20:11:33.548Z,13.20
2023-01-17T20:14:01.477Z,13.14
2023-01-17T20:16:32.321Z,13.17
2023-01-17T20:19:00.354Z,13.12
2023-01-17T20:21:30.160Z,13.17
2023-01-17T20:24:03.195Z,13.08
2023-01-17T20:26:37.540Z,13.13
2023-01-17T20:29:12.057Z,13.09
2023-01-17T20:31:41.446Z,13.13
2023-01-17T20:34:11.697Z,13.07
2023-01-17T20:36:42.226Z,13.04
2023-01-17T20:39:12.915Z,13.04
2023-01-17T20:41:42.949Z,13.05
2023-01-17T20:44:15.356Z,13.04
2023-01-17T20:46:42.964Z,13.06
2023-01-17T20:49:15.233Z,13.05
2023-01-17T20:51:44.552Z,13.00
2023-01-17T20:54:14.622Z,13.02
2023-01-17T20:56:43.014Z,12.98
2023-01-17T20:59:28.379Z,13.05
2023-01-17T21:01:55.537Z,13.05
2023-01-17T21:04:26.209Z,13.06
2023-01-17T21:06:53.600Z,13.04
2023-01-17T21:09:22.149Z,13.00
2023-01-17T21:11:49.663Z,12.99
2023-01-17T21:14:17.249Z,13.01
2023-01-17T21:16:44.792Z,12.99
2023-01-17T21:19:15.109Z,12.99
2023-01-17T21:21:43.182Z,13.06
2023-01-17T21:24:18.674Z,13.01
2023-01-17T21:26:47.110Z,13.06
2023-01-17T21:29:16.292Z,13.01
2023-01-17T21:31:45.417Z,13.02
2023-01-17T21:34:13.901Z,12.99
2023-01-17T21:36:42.479Z,12.96
2023-01-17T21:39:16.880Z,12.99
2023-01-17T21:41:48.175Z,12.86
2023-01-17T21:44:19.870Z,12.94
2023-01-17T21:46:47.994Z,12.90
2023-01-17T21:49:15.771Z,12.85
2023-01-17T21:51:52.813Z,12.84
2023-01-17T21:54:44.571Z,12.89
2023-01-17T21:57:35.058Z,12.85
2023-01-17T22:00:25.983Z,12.88
2023-01-17T22:02:56.995Z,12.82
2023-01-17T22:05:27.768Z,12.75
2023-01-17T22:08:38.836Z,12.87
2023-01-17T22:11:11.007Z,12.72
2023-01-17T22:13:40.995Z,12.77
2023-01-17T22:16:12.403Z,12.83
2023-01-17T22:18:40.914Z,12.84
2023-01-17T22:21:14.951Z,12.75
2023-01-17T22:23:53.313Z,12.71
2023-01-17T22:26:22.883Z,12.75
2023-01-17T22:28:50.524Z,12.68
2023-01-17T22:31:23.643Z,12.65
2023-01-17T22:34:00.753Z,12.63
2023-01-17T22:36:32.055Z,12.58
2023-01-17T22:39:00.621Z,12.67
2023-01-17T22:41:34.843Z,12.67
2023-01-17T22:44:05.624Z,12.63
2023-01-17T22:46:35.960Z,12.67
2023-01-17T22:49:03.285Z,12.63
2023-01-17T22:51:30.789Z,12.62
2023-01-17T22:54:00.303Z,12.69
2023-01-17T22:56:30.994Z,12.53
2023-01-17T22:59:00.932Z,12.72
2023-01-17T23:01:31.052Z,12.67
2023-01-17T23:04:01.815Z,12.68
2023-01-17T23:06:32.681Z,12.63
2023-01-17T23:09:18.949Z,12.63
2023-01-17T23:11:53.723Z,12.58
2023-01-17T23:14:24.967Z,12.67
2023-01-17T23:17:19.902Z,12.72
2023-01-17T23:19:53.159Z,12.78
2023-01-17T23:22:23.926Z,12.76
2023-01-17T23:24:52.428Z,12.76
2023-01-17T23:27:55.497Z,12.91
2023-01-17T23:30:35.621Z,12.89
2023-01-17T23:33:06.085Z,12.90
2023-01-17T23:35:41.251Z,12.99
2023-01-17T23:38:34.776Z,12.94
2023-01-17T23:41:23.767Z,12.92
2023-01-17T23:43:59.124Z,12.80
2023-01-17T23:46:30.417Z,12.84
2023-01-17T23:48:58.105Z,12.84
2023-01-17T23:51:25.365Z,12.78
2023-01-17T23:53:57.506Z,12.71
2023-01-17T23:56:25.074Z,12.52
2023-01-17T23:58:52.606Z,12.49
